KAXN/AXN METAR and TAF weather

Enter ICAO airport designator
Station Type Date Time Source
KAXN METAR 2018/07/21 22:02 UTC NOAA

KAXN 212202Z AUTO 04004KT 10SM SCT028 BKN043 OVC055 26/18 A3010 RMK AO2 T02560178


Station Type Date Time Source
KAXN Decoded METAR 2018/07/21 22:02 UTC NOAA

CHANDLER FIELD, MN, United States (KAXN) 45-52N 095-24W 433M
Jul 21, 2018 - 06:02 PM EDT / 2018.07.21 2202 UTC
Wind: from the NE (040 degrees) at 5 MPH (4 KT):0
Visibility: 10 mile(s):0
Sky conditions: overcast
Temperature: 78.1 F (25.6 C)
Dew Point: 64.0 F (17.8 C)
Relative Humidity: 62%
Pressure (altimeter): 30.1 in. Hg (1019 hPa)
ob: KAXN 212202Z AUTO 04004KT 10SM SCT028 BKN043 OVC055 26/18 A3010 RMK AO2 T02560178
cycle: 22

Station Type Date Time Source
KAXN TAF 2018/07/21 18:24 UTC NOAA

TAF KAXN 211723Z 2118/2218 01007KT P6SM BKN012
FM211900 01006KT P6SM SCT020 BKN035
FM220000 02005KT P6SM FEW035 SCT080
FM221100 10005KT P6SM FEW050 SCT200
FM221700 13008KT P6SM SCT200


Example: see airport list